Gearhart, Oregon
Current Conditions -  °F | °C
As of 10:55 PM on Friday 28 Nov 2014 (Local Time) from KAST Reporting Station
Overcast Overcast  
Wind Chill: 39°   Ceiling: 6000
Heat Index: 43°   Visibility: 10mi
Dew Point: 36°   Wind: 7mph
Humidity: 76%   Direction: 290°WNW
Pressure: 29.6"   Gusts: NA
Location:  45.8905°N, 123.667°W
Report Text: KAST 290655Z AUTO 29006KT 10SM BKN060 OVC075 06/02 A2960 RMK AO2 RAB13E23 SLP024 P0000 T00610022
Loading
Personal Weather Stations






























Interactive Weather Map New forecast layout! Learn more

10-Day Weather Forecast

Advertisements
Track Severe Weather on mobile